Date,TemperatureHighF,TemperatureAvgF,TemperatureLowF,DewpointHighF,DewpointAvgF,DewpointLowF,HumidityHigh,HumidityAvg,HumidityLow,PressureMaxIn,PressureMinIn,WindSpeedMaxMPH,WindSpeedAvgMPH,GustSpeedMaxMPH,PrecipitationSumIn
2013-2-1,21,15,11,20,13,8,93,90,89,0.00,40.00,17,12,24,0.00
2013-2-2,31,22,13,13,-4,-100,89,44,16,0.00,40.00,13,7,23,0.00
2013-2-3,26,21,17,17,1,-100,93,52,19,0.00,40.00,15,11,27,0.00
2013-2-4,29,23,17,9,-2,-11,56,36,19,0.00,40.00,17,10,24,0.00
2013-2-5,36,26,21,13,0,-12,68,34,16,0.00,40.00,19,10,27,0.00
2013-2-6,24,20,16,18,12,5,92,69,51,0.00,40.00,15,11,25,0.00
2013-2-7,25,18,11,14,1,-100,91,55,17,0.00,40.00,16,10,24,0.00
2013-2-8,20,17,14,13,11,7,90,77,64,0.00,40.00,26,18,51,0.00
2013-2-9,17,8,2,11,5,-2,90,85,69,0.00,40.00,23,17,50,0.00
2013-2-10,7,4,1,4,0,-3,86,83,82,0.00,40.00,20,14,32,0.00
2013-2-11,5,3,0,2,0,-4,84,84,82,0.00,40.00,19,12,38,0.00
2013-2-12,15,4,-3,12,0,-8,88,83,79,0.00,40.00,15,9,26,0.00
2013-2-13,25,15,7,12,5,-4,86,67,33,0.00,40.00,17,10,24,0.00
2013-2-14,18,15,11,2,-8,-16,52,36,23,0.00,40.00,17,10,27,0.00
2013-2-15,16,11,7,-5,-10,-14,46,38,28,0.00,40.00,27,12,41,0.00
2013-2-16,29,21,15,3,-5,-11,51,33,19,0.00,40.00,14,10,32,0.00
2013-2-17,24,19,15,0,-8,-19,47,31,14,0.00,40.00,18,15,37,0.00
2013-2-18,16,10,4,4,-6,-100,84,52,16,0.00,40.00,17,13,31,0.00
2013-2-19,20,15,9,1,-15,-100,54,30,6,0.00,40.00,20,15,40,0.00
2013-2-20,16,12,8,12,8,5,90,85,61,0.00,40.00,19,11,41,0.00
2013-2-21,12,9,5,9,6,1,88,86,84,0.00,40.00,14,10,22,0.00
2013-2-22,10,7,2,7,4,-2,87,85,83,0.00,40.00,18,11,30,0.00
2013-2-23,11,8,1,7,5,-3,87,85,81,0.00,40.00,21,15,29,0.00
2013-2-24,12,6,0,9,2,-4,88,84,82,0.00,40.00,42,17,53,0.00
2013-2-25,17,8,0,5,-3,-15,86,63,25,0.00,40.00,44,22,56,0.00
2013-2-26,8,4,0,5,0,-8,87,81,64,0.00,40.00,23,14,34,0.00
2013-2-27,12,6,-1,0,-8,-14,77,55,35,0.00,40.00,23,13,31,0.00
2013-2-28,19,11,2,1,-9,-24,71,41,20,0.00,40.00,19,10,33,0.00